createdAt,value
2023-04-10T00:01:07.180Z,100.00
2023-04-10T00:03:37.848Z,100.00
2023-04-10T00:06:04.426Z,100.00
2023-04-10T00:08:30.735Z,100.00
2023-04-10T00:10:57.138Z,100.00
2023-04-10T00:13:23.421Z,100.00
2023-04-10T00:15:50.757Z,100.00
2023-04-10T00:18:17.090Z,100.00
2023-04-10T00:20:43.778Z,100.00
2023-04-10T00:23:10.255Z,100.00
2023-04-10T00:25:36.548Z,100.00
2023-04-10T00:28:03.047Z,100.00
2023-04-10T00:30:29.337Z,100.00
2023-04-10T00:32:56.026Z,100.00
2023-04-10T00:35:22.380Z,100.00
2023-04-10T00:37:50.233Z,100.00
2023-04-10T00:40:16.807Z,100.00
2023-04-10T00:42:43.215Z,100.00
2023-04-10T00:45:11.895Z,100.00
2023-04-10T00:47:38.532Z,100.00
2023-04-10T00:50:05.377Z,100.00
2023-04-10T00:52:32.253Z,100.00
2023-04-10T00:55:05.662Z,100.00
2023-04-10T00:57:33.278Z,100.00
2023-04-10T01:00:00.319Z,100.00
2023-04-10T01:02:27.107Z,100.00
2023-04-10T01:04:53.457Z,100.00
2023-04-10T01:07:27.287Z,100.00
2023-04-10T01:10:13.193Z,100.00
2023-04-10T01:12:42.562Z,100.00
2023-04-10T01:15:14.945Z,100.00
2023-04-10T01:17:47.449Z,100.00
2023-04-10T01:20:16.458Z,100.00
2023-04-10T01:22:58.114Z,100.00
2023-04-10T01:25:33.713Z,100.00
2023-04-10T01:28:01.024Z,100.00
2023-04-10T01:30:27.982Z,100.00
2023-04-10T01:32:57.919Z,100.00
2023-04-10T01:35:24.337Z,100.00
2023-04-10T01:37:51.941Z,100.00
2023-04-10T01:40:19.398Z,100.00
2023-04-10T01:42:52.967Z,100.00
2023-04-10T01:45:21.021Z,100.00
2023-04-10T01:47:47.514Z,100.00
2023-04-10T01:50:13.983Z,100.00
2023-04-10T01:52:41.441Z,100.00
2023-04-10T01:55:08.135Z,100.00
2023-04-10T01:57:35.975Z,100.00
2023-04-10T02:00:03.185Z,100.00
2023-04-10T02:02:33.663Z,100.00
2023-04-10T02:05:00.310Z,100.00
2023-04-10T02:07:32.528Z,100.00
2023-04-10T02:10:34.438Z,100.00
2023-04-10T02:13:03.781Z,100.00
2023-04-10T02:15:32.330Z,100.00
2023-04-10T02:17:59.984Z,100.00
2023-04-10T02:20:26.600Z,100.00
2023-04-10T02:22:53.371Z,100.00
2023-04-10T02:25:19.633Z,100.00
2023-04-10T02:27:49.044Z,100.00
2023-04-10T02:30:22.186Z,100.00
2023-04-10T02:32:48.554Z,100.00
2023-04-10T02:35:14.897Z,100.00
2023-04-10T02:37:50.613Z,100.00
2023-04-10T02:40:16.886Z,100.00
2023-04-10T02:42:43.170Z,100.00
2023-04-10T02:45:10.215Z,100.00
2023-04-10T02:47:36.667Z,100.00
2023-04-10T02:50:02.997Z,100.00
2023-04-10T02:52:29.363Z,100.00
2023-04-10T02:54:55.631Z,100.00
2023-04-10T02:57:22.555Z,100.00
2023-04-10T02:59:52.193Z,100.00
2023-04-10T03:02:18.604Z,100.00
2023-04-10T03:04:44.966Z,100.00
2023-04-10T03:07:11.315Z,100.00
2023-04-10T03:09:37.614Z,100.00
2023-04-10T03:12:03.915Z,100.00
2023-04-10T03:14:30.426Z,100.00
2023-04-10T03:16:56.720Z,100.00
2023-04-10T03:19:22.998Z,100.00
2023-04-10T03:21:49.310Z,100.00
2023-04-10T03:24:16.541Z,100.00
2023-04-10T03:26:43.005Z,100.00
2023-04-10T03:29:09.285Z,100.00
2023-04-10T03:31:35.587Z,100.00
2023-04-10T03:34:01.985Z,100.00
2023-04-10T03:36:29.324Z,100.00
2023-04-10T03:38:55.631Z,100.00
2023-04-10T03:41:25.447Z,100.00
2023-04-10T03:43:52.233Z,100.00
2023-04-10T03:46:18.782Z,100.00
2023-04-10T03:48:45.208Z,100.00
2023-04-10T03:51:11.515Z,100.00
2023-04-10T03:53:37.835Z,100.00
2023-04-10T03:56:04.313Z,100.00
2023-04-10T03:58:30.634Z,100.00
2023-04-10T04:00:57.079Z,100.00
2023-04-10T04:03:23.892Z,100.00
2023-04-10T04:05:50.899Z,100.00
2023-04-10T04:08:17.179Z,100.00
2023-04-10T04:10:43.459Z,100.00
2023-04-10T04:13:09.745Z,100.00
2023-04-10T04:15:36.072Z,100.00
2023-04-10T04:18:02.484Z,100.00
2023-04-10T04:20:28.774Z,100.00
2023-04-10T04:22:55.101Z,100.00
2023-04-10T04:25:21.426Z,100.00
2023-04-10T04:27:47.733Z,100.00
2023-04-10T04:30:14.034Z,100.00
2023-04-10T04:33:04.286Z,100.00
2023-04-10T04:35:30.917Z,100.00
2023-04-10T04:37:57.256Z,100.00
2023-04-10T04:40:23.524Z,100.00
2023-04-10T04:42:49.816Z,100.00
2023-04-10T04:45:16.464Z,100.00
2023-04-10T04:47:42.749Z,100.00
2023-04-10T04:50:09.440Z,100.00
2023-04-10T04:52:35.824Z,100.00
2023-04-10T04:55:02.102Z,100.00
2023-04-10T04:57:31.407Z,100.00
2023-04-10T04:59:57.712Z,100.00
2023-04-10T05:02:24.148Z,100.00
2023-04-10T05:04:50.635Z,100.00
2023-04-10T05:07:16.927Z,100.00
2023-04-10T05:09:43.297Z,100.00
2023-04-10T05:12:09.610Z,100.00
2023-04-10T05:14:36.004Z,100.00
2023-04-10T05:17:03.631Z,100.00
2023-04-10T05:19:30.188Z,100.00
2023-04-10T05:21:56.624Z,100.00
2023-04-10T05:24:22.912Z,100.00
2023-04-10T05:26:49.193Z,100.00
2023-04-10T05:29:15.635Z,100.00
2023-04-10T05:31:41.914Z,100.00
2023-04-10T05:34:08.224Z,100.00
2023-04-10T05:36:34.951Z,100.00
2023-04-10T05:39:01.258Z,100.00
2023-04-10T05:41:27.558Z,100.00
2023-04-10T05:43:53.873Z,100.00
2023-04-10T05:46:20.179Z,100.00
2023-04-10T05:48:46.557Z,100.00
2023-04-10T05:51:12.854Z,100.00
2023-04-10T05:53:39.126Z,100.00
2023-04-10T05:56:05.730Z,100.00
2023-04-10T05:58:32.017Z,100.00
2023-04-10T06:00:58.547Z,100.00
2023-04-10T06:03:27.296Z,100.00
2023-04-10T06:05:54.010Z,100.00
2023-04-10T06:08:20.347Z,100.00
2023-04-10T06:10:46.819Z,100.00
2023-04-10T06:13:14.901Z,100.00
2023-04-10T06:15:42.265Z,100.00
2023-04-10T06:18:09.081Z,100.00
2023-04-10T06:20:35.401Z,100.00
2023-04-10T06:23:02.420Z,100.00
2023-04-10T06:25:28.934Z,100.00
2023-04-10T06:27:55.344Z,100.00
2023-04-10T06:30:21.624Z,100.00
2023-04-10T06:32:47.910Z,100.00
2023-04-10T06:35:14.652Z,100.00
2023-04-10T06:37:40.998Z,100.00
2023-04-10T06:40:08.806Z,100.00
2023-04-10T06:42:41.059Z,100.00
2023-04-10T06:45:07.775Z,100.00
2023-04-10T06:47:34.293Z,100.00
2023-04-10T06:50:00.684Z,100.00
2023-04-10T06:52:27.173Z,100.00
2023-04-10T06:54:53.464Z,100.00
2023-04-10T06:57:19.763Z,100.00
2023-04-10T06:59:46.093Z,100.00
2023-04-10T07:02:12.462Z,100.00
2023-04-10T07:04:38.814Z,100.00
2023-04-10T07:07:09.662Z,100.00
2023-04-10T07:09:36.202Z,100.00
2023-04-10T07:12:02.482Z,100.00
2023-04-10T07:14:28.877Z,100.00
2023-04-10T07:16:55.263Z,100.00
2023-04-10T07:19:21.528Z,100.00
2023-04-10T07:21:50.817Z,100.00
2023-04-10T07:24:17.586Z,100.00
2023-04-10T07:26:44.401Z,100.00
2023-04-10T07:29:10.840Z,100.00
2023-04-10T07:31:44.714Z,100.00
2023-04-10T07:34:12.060Z,100.00
2023-04-10T07:36:38.441Z,100.00
2023-04-10T07:39:04.770Z,100.00
2023-04-10T07:41:31.164Z,100.00
2023-04-10T07:43:57.506Z,99.03
2023-04-10T07:46:23.982Z,98.91
2023-04-10T07:48:50.704Z,98.48
2023-04-10T07:51:16.989Z,95.46
2023-04-10T07:53:43.342Z,92.34
2023-04-10T07:56:15.513Z,89.74
2023-04-10T07:58:41.792Z,90.29
2023-04-10T08:01:08.062Z,86.32
2023-04-10T08:03:41.343Z,87.47
2023-04-10T08:06:11.598Z,87.55
2023-04-10T08:08:38.734Z,88.27
2023-04-10T08:11:07.852Z,85.97
2023-04-10T08:13:34.119Z,83.01
2023-04-10T08:16:00.686Z,83.07
2023-04-10T08:18:27.068Z,81.79
2023-04-10T08:20:53.364Z,82.77
2023-04-10T08:23:29.835Z,81.20
2023-04-10T08:25:56.112Z,79.83
2023-04-10T08:28:22.384Z,79.58
2023-04-10T08:30:48.688Z,78.57
2023-04-10T08:33:15.461Z,77.26
2023-04-10T08:35:41.823Z,78.55
2023-04-10T08:38:13.982Z,77.82
2023-04-10T08:40:40.881Z,77.51
2023-04-10T08:43:07.197Z,78.21
2023-04-10T08:45:33.661Z,78.56
2023-04-10T08:48:05.330Z,76.81
2023-04-10T08:50:33.344Z,79.00
2023-04-10T08:53:03.406Z,78.04
2023-04-10T08:55:29.680Z,76.62
2023-04-10T08:58:01.264Z,78.48
2023-04-10T09:00:28.573Z,75.51
2023-04-10T09:02:58.176Z,72.98
2023-04-10T09:05:26.743Z,71.92
2023-04-10T09:07:53.038Z,70.38
2023-04-10T09:10:19.371Z,70.79
2023-04-10T09:12:46.554Z,69.19
2023-04-10T09:15:13.890Z,63.33
2023-04-10T09:17:59.147Z,53.54
2023-04-10T09:20:26.505Z,51.26
2023-04-10T09:22:53.252Z,49.80
2023-04-10T09:25:30.384Z,47.66
2023-04-10T09:28:04.026Z,45.89
2023-04-10T09:30:40.351Z,45.97
2023-04-10T09:33:30.102Z,43.47
2023-04-10T09:35:57.899Z,42.97
2023-04-10T09:38:25.705Z,43.83
2023-04-10T09:40:53.644Z,42.24
2023-04-10T09:43:22.884Z,39.94
2023-04-10T09:45:52.183Z,41.56
2023-04-10T09:48:18.884Z,39.14
2023-04-10T09:50:45.334Z,39.80
2023-04-10T09:53:12.867Z,39.61
2023-04-10T09:55:39.412Z,35.90
2023-04-10T09:58:06.445Z,36.62
2023-04-10T10:00:42.743Z,37.15
2023-04-10T10:03:10.794Z,37.47
2023-04-10T10:05:39.284Z,36.69
2023-04-10T10:08:05.931Z,35.75
2023-04-10T10:10:32.690Z,33.74
2023-04-10T10:13:03.366Z,36.25
2023-04-10T10:15:50.140Z,36.96
2023-04-10T10:18:27.350Z,36.30
2023-04-10T10:20:53.692Z,33.01
2023-04-10T10:23:19.976Z,33.31
2023-04-10T10:25:48.668Z,33.57
2023-04-10T10:28:16.402Z,33.23
2023-04-10T10:30:43.045Z,33.19
2023-04-10T10:33:10.351Z,33.03
2023-04-10T10:35:37.532Z,30.38
2023-04-10T10:38:04.466Z,31.06
2023-04-10T10:40:30.777Z,33.31
2023-04-10T10:43:08.393Z,32.32
2023-04-10T10:45:38.571Z,32.48
2023-04-10T10:48:04.982Z,32.00
2023-04-10T10:51:11.746Z,32.57
2023-04-10T10:53:39.665Z,33.65
2023-04-10T10:56:23.565Z,33.56
2023-04-10T10:59:01.974Z,31.75
2023-04-10T11:01:28.593Z,32.15
2023-04-10T11:03:55.148Z,32.53
2023-04-10T11:06:42.914Z,31.42
2023-04-10T11:09:30.502Z,32.72
2023-04-10T11:11:58.990Z,31.88
2023-04-10T11:14:25.487Z,33.96
2023-04-10T11:16:51.798Z,31.44
2023-04-10T11:19:22.644Z,32.07
2023-04-10T11:21:59.342Z,31.86
2023-04-10T11:24:26.454Z,34.12
2023-04-10T11:26:52.730Z,33.10
2023-04-10T11:29:28.235Z,34.20
2023-04-10T11:31:58.633Z,35.13
2023-04-10T11:34:25.328Z,33.80
2023-04-10T11:36:53.246Z,35.98
2023-04-10T11:39:20.420Z,34.56
2023-04-10T11:41:50.790Z,34.63
2023-04-10T11:44:18.241Z,33.26
2023-04-10T11:46:47.184Z,33.13
2023-04-10T11:49:17.776Z,33.50
2023-04-10T11:51:46.126Z,33.35
2023-04-10T11:54:16.546Z,31.35
2023-04-10T11:56:44.309Z,32.52
2023-04-10T11:59:13.259Z,34.18
2023-04-10T12:01:43.509Z,33.85
2023-04-10T12:04:14.386Z,33.87
2023-04-10T12:06:45.582Z,32.84
2023-04-10T12:09:16.329Z,32.70
2023-04-10T12:11:50.755Z,33.58
2023-04-10T12:14:17.102Z,32.54
2023-04-10T12:16:43.919Z,31.45
2023-04-10T12:19:11.004Z,32.02
2023-04-10T12:21:37.941Z,32.43
2023-04-10T12:24:04.318Z,32.04
2023-04-10T12:26:30.686Z,32.20
2023-04-10T12:28:59.002Z,32.23
2023-04-10T12:31:32.292Z,30.54
2023-04-10T12:34:02.164Z,31.15
2023-04-10T12:36:30.084Z,31.58
2023-04-10T12:38:57.257Z,33.28
2023-04-10T12:41:24.972Z,32.40
2023-04-10T12:43:51.916Z,33.13
2023-04-10T12:46:25.962Z,30.82
2023-04-10T12:48:52.715Z,31.02
2023-04-10T12:51:19.482Z,30.22
2023-04-10T12:53:46.192Z,29.49
2023-04-10T12:56:14.747Z,31.54
2023-04-10T12:58:42.468Z,31.11
2023-04-10T13:01:09.692Z,31.55
2023-04-10T13:03:36.764Z,31.26
2023-04-10T13:06:04.960Z,33.39
2023-04-10T13:08:32.573Z,33.19
2023-04-10T13:11:08.424Z,34.26
2023-04-10T13:13:34.739Z,34.80
2023-04-10T13:16:01.268Z,31.24
2023-04-10T13:18:27.810Z,33.08
2023-04-10T13:20:54.127Z,31.80
2023-04-10T13:23:20.432Z,32.23
2023-04-10T13:25:46.869Z,33.90
2023-04-10T13:28:13.200Z,30.85
2023-04-10T13:30:40.325Z,30.10
2023-04-10T13:33:07.574Z,31.04
2023-04-10T13:35:34.000Z,31.55
2023-04-10T13:38:00.435Z,33.61
2023-04-10T13:40:26.989Z,34.25
2023-04-10T13:42:55.472Z,35.06
2023-04-10T13:45:21.832Z,32.04
2023-04-10T13:47:48.205Z,33.53
2023-04-10T13:50:14.581Z,32.54
2023-04-10T13:52:40.867Z,30.29
2023-04-10T13:55:07.464Z,30.74
2023-04-10T13:57:34.259Z,30.84
2023-04-10T14:00:01.165Z,32.08
2023-04-10T14:02:27.571Z,30.95
2023-04-10T14:04:53.920Z,31.23
2023-04-10T14:07:20.309Z,31.22
2023-04-10T14:09:47.179Z,32.39
2023-04-10T14:12:16.240Z,31.50
2023-04-10T14:14:44.836Z,31.34
2023-04-10T14:17:11.120Z,31.07
2023-04-10T14:19:37.725Z,31.72
2023-04-10T14:22:04.048Z,30.50
2023-04-10T14:24:30.371Z,33.26
2023-04-10T14:27:00.622Z,33.53
2023-04-10T14:29:37.301Z,32.76
2023-04-10T14:32:07.346Z,31.29
2023-04-10T14:34:33.706Z,31.54
2023-04-10T14:37:00.308Z,33.63
2023-04-10T14:39:26.918Z,32.23
2023-04-10T14:41:53.306Z,31.30
2023-04-10T14:44:19.635Z,30.73
2023-04-10T14:46:46.203Z,31.14
2023-04-10T14:49:13.082Z,32.21
2023-04-10T14:51:39.409Z,32.87
2023-04-10T14:54:06.066Z,33.01
2023-04-10T14:56:32.920Z,31.92
2023-04-10T14:59:06.840Z,32.15
2023-04-10T15:01:33.715Z,32.91
2023-04-10T15:04:00.177Z,31.43
2023-04-10T15:06:28.153Z,31.17
2023-04-10T15:08:55.633Z,30.11
2023-04-10T15:11:21.949Z,32.08
2023-04-10T15:13:48.252Z,32.48
2023-04-10T15:16:14.587Z,31.95
2023-04-10T15:18:40.934Z,32.88
2023-04-10T15:21:07.400Z,33.46
2023-04-10T15:23:36.688Z,33.31
2023-04-10T15:26:03.462Z,33.14
2023-04-10T15:28:29.767Z,33.44
2023-04-10T15:30:57.634Z,33.65
2023-04-10T15:33:24.083Z,33.50
2023-04-10T15:35:50.783Z,30.85
2023-04-10T15:38:17.131Z,31.39
2023-04-10T15:40:43.695Z,30.53
2023-04-10T15:43:10.001Z,32.82
2023-04-10T15:45:37.149Z,29.43
2023-04-10T15:48:04.514Z,30.05
2023-04-10T15:50:31.090Z,29.30
2023-04-10T15:52:57.388Z,29.15
2023-04-10T15:55:23.645Z,28.03
2023-04-10T15:57:49.940Z,28.59
2023-04-10T16:00:16.380Z,27.48
2023-04-10T16:02:42.957Z,26.82
2023-04-10T16:05:09.680Z,27.97
2023-04-10T16:07:38.240Z,27.81
2023-04-10T16:10:11.391Z,28.81
2023-04-10T16:12:38.265Z,30.36
2023-04-10T16:15:05.582Z,29.47
2023-04-10T16:17:31.971Z,29.29
2023-04-10T16:19:58.320Z,28.42
2023-04-10T16:22:24.644Z,29.44
2023-04-10T16:24:54.352Z,29.32
2023-04-10T16:27:20.859Z,29.73
2023-04-10T16:29:47.133Z,30.98
2023-04-10T16:32:13.419Z,32.81
2023-04-10T16:34:39.724Z,34.63
2023-04-10T16:37:06.027Z,35.42
2023-04-10T16:39:32.316Z,34.87
2023-04-10T16:41:59.989Z,35.75
2023-04-10T16:44:26.329Z,36.52
2023-04-10T16:46:52.742Z,37.83
2023-04-10T16:49:19.068Z,37.65
2023-04-10T16:51:45.333Z,36.01
2023-04-10T16:54:12.009Z,35.76
2023-04-10T16:56:38.280Z,37.94
2023-04-10T16:59:04.632Z,40.80
2023-04-10T17:01:31.498Z,39.83
2023-04-10T17:03:57.967Z,41.53
2023-04-10T17:06:24.258Z,43.29
2023-04-10T17:08:50.606Z,45.50
2023-04-10T17:11:17.001Z,43.57
2023-04-10T17:13:43.376Z,44.40
2023-04-10T17:16:09.897Z,44.86
2023-04-10T17:18:36.695Z,42.86
2023-04-10T17:21:03.049Z,48.98
2023-04-10T17:23:29.645Z,48.07
2023-04-10T17:25:56.046Z,46.90
2023-04-10T17:28:22.370Z,47.37
2023-04-10T17:30:48.744Z,51.53
2023-04-10T17:33:15.050Z,50.73
2023-04-10T17:35:41.788Z,51.25
2023-04-10T17:38:08.116Z,49.28
2023-04-10T17:40:34.514Z,48.94
2023-04-10T17:43:00.800Z,47.52
2023-04-10T17:45:27.221Z,51.76
2023-04-10T17:47:53.959Z,53.32
2023-04-10T17:50:20.539Z,50.27
2023-04-10T17:52:46.805Z,50.41
2023-04-10T17:55:18.253Z,53.62
2023-04-10T17:57:46.869Z,54.60
2023-04-10T18:00:17.630Z,54.71
2023-04-10T18:02:44.980Z,54.25
2023-04-10T18:05:11.892Z,55.55
2023-04-10T18:07:38.740Z,54.89
2023-04-10T18:10:05.959Z,55.48
2023-04-10T18:12:32.364Z,54.76
2023-04-10T18:14:58.713Z,54.58
2023-04-10T18:17:25.072Z,52.82
2023-04-10T18:19:51.589Z,52.02
2023-04-10T18:22:18.503Z,50.03
2023-04-10T18:24:48.269Z,48.82
2023-04-10T18:27:14.700Z,49.51
2023-04-10T18:29:41.321Z,49.60
2023-04-10T18:32:07.699Z,50.34
2023-04-10T18:34:34.136Z,50.99
2023-04-10T18:37:00.423Z,50.87
2023-04-10T18:39:26.732Z,51.22
2023-04-10T18:41:53.037Z,52.22
2023-04-10T18:44:19.322Z,52.93
2023-04-10T18:46:48.592Z,54.03
2023-04-10T18:49:20.346Z,54.05
2023-04-10T18:51:46.618Z,55.69
2023-04-10T18:54:12.883Z,57.61
2023-04-10T18:56:39.659Z,59.28
2023-04-10T18:59:05.935Z,60.66
2023-04-10T19:01:32.352Z,61.37
2023-04-10T19:03:59.022Z,62.58
2023-04-10T19:06:26.989Z,62.93
2023-04-10T19:08:55.453Z,63.70
2023-04-10T19:11:21.752Z,62.09
2023-04-10T19:13:48.704Z,65.37
2023-04-10T19:16:19.079Z,65.86
2023-04-10T19:18:47.251Z,66.37
2023-04-10T19:21:14.118Z,66.19
2023-04-10T19:23:41.124Z,66.66
2023-04-10T19:26:08.577Z,66.81
2023-04-10T19:28:35.224Z,68.77
2023-04-10T19:31:09.978Z,69.62
2023-04-10T19:33:36.313Z,70.13
2023-04-10T19:36:02.623Z,71.15
2023-04-10T19:38:32.804Z,72.62
2023-04-10T19:40:59.182Z,73.77
2023-04-10T19:43:25.500Z,73.00
2023-04-10T19:45:52.993Z,72.73
2023-04-10T19:48:19.378Z,73.06
2023-04-10T19:50:45.688Z,74.66
2023-04-10T19:53:12.989Z,75.08
2023-04-10T19:55:43.466Z,73.73
2023-04-10T19:58:17.028Z,73.55
2023-04-10T20:00:52.019Z,75.31
2023-04-10T20:03:25.896Z,76.86
2023-04-10T20:05:53.611Z,77.87
2023-04-10T20:08:19.982Z,76.83
2023-04-10T20:10:46.251Z,77.04
2023-04-10T20:13:12.538Z,77.35
2023-04-10T20:15:38.838Z,78.52
2023-04-10T20:18:05.254Z,76.85
2023-04-10T20:20:31.641Z,76.87
2023-04-10T20:22:58.172Z,76.22
2023-04-10T20:25:31.728Z,76.53
2023-04-10T20:27:58.060Z,77.71
2023-04-10T20:30:24.357Z,76.45
2023-04-10T20:32:50.798Z,76.60
2023-04-10T20:35:17.228Z,76.28
2023-04-10T20:37:43.577Z,76.85
2023-04-10T20:40:10.008Z,76.96
2023-04-10T20:42:36.305Z,75.85
2023-04-10T20:45:03.108Z,75.91
2023-04-10T20:47:29.483Z,75.73
2023-04-10T20:49:55.860Z,76.59
2023-04-10T20:52:22.164Z,75.35
2023-04-10T20:54:48.425Z,74.92
2023-04-10T20:57:14.702Z,75.90
2023-04-10T20:59:41.159Z,76.93
2023-04-10T21:02:07.547Z,75.78
2023-04-10T21:04:33.988Z,75.22
2023-04-10T21:07:08.355Z,75.53
2023-04-10T21:09:34.650Z,70.23
2023-04-10T21:12:00.926Z,66.96
2023-04-10T21:14:27.216Z,64.89
2023-04-10T21:16:53.708Z,61.90
2023-04-10T21:19:20.169Z,60.19
2023-04-10T21:21:46.473Z,59.83
2023-04-10T21:24:12.765Z,60.18
2023-04-10T21:26:39.044Z,59.88
2023-04-10T21:29:05.356Z,59.30
2023-04-10T21:31:39.702Z,58.22
2023-04-10T21:34:06.091Z,57.71
2023-04-10T21:36:32.598Z,57.86
2023-04-10T21:38:58.891Z,55.81
2023-04-10T21:41:26.396Z,56.59
2023-04-10T21:43:56.384Z,57.14
2023-04-10T21:46:22.798Z,56.62
2023-04-10T21:48:49.098Z,56.25
2023-04-10T21:51:15.354Z,57.43
2023-04-10T21:53:41.628Z,57.01
2023-04-10T21:56:08.162Z,57.54
2023-04-10T21:58:34.827Z,56.67
2023-04-10T22:01:01.154Z,56.58
2023-04-10T22:03:27.626Z,56.08
2023-04-10T22:05:53.991Z,55.55
2023-04-10T22:08:20.371Z,54.28
2023-04-10T22:10:47.974Z,54.92
2023-04-10T22:13:27.347Z,55.01
2023-04-10T22:15:56.910Z,55.59
2023-04-10T22:18:23.259Z,56.31
2023-04-10T22:20:49.530Z,55.25
2023-04-10T22:23:15.816Z,54.23
2023-04-10T22:25:42.117Z,55.01
2023-04-10T22:28:08.420Z,55.53
2023-04-10T22:30:35.463Z,54.67
2023-04-10T22:33:01.949Z,56.28
2023-04-10T22:35:28.383Z,56.23
2023-04-10T22:37:55.339Z,55.52
2023-04-10T22:40:21.631Z,55.39
2023-04-10T22:42:48.516Z,55.24
2023-04-10T22:45:15.590Z,55.79
2023-04-10T22:47:41.874Z,56.70
2023-04-10T22:50:12.326Z,56.24
2023-04-10T22:52:38.643Z,55.86
2023-04-10T22:55:06.778Z,56.10
2023-04-10T22:57:33.535Z,55.93
2023-04-10T23:00:00.598Z,57.91
2023-04-10T23:02:27.467Z,57.97
2023-04-10T23:04:54.110Z,57.44
2023-04-10T23:07:20.428Z,57.98
2023-04-10T23:09:46.716Z,57.38
2023-04-10T23:12:13.031Z,57.68
2023-04-10T23:14:39.381Z,57.88
2023-04-10T23:17:05.781Z,57.06
2023-04-10T23:19:32.081Z,56.30
2023-04-10T23:21:58.394Z,56.45
2023-04-10T23:24:24.700Z,55.93
2023-04-10T23:26:50.978Z,55.77
2023-04-10T23:29:17.257Z,55.79
2023-04-10T23:31:43.919Z,55.99
2023-04-10T23:34:10.312Z,56.17
2023-04-10T23:36:36.661Z,55.14
2023-04-10T23:39:02.952Z,55.00
2023-04-10T23:41:29.237Z,55.40
2023-04-10T23:43:56.023Z,56.01
2023-04-10T23:46:22.345Z,56.53
2023-04-10T23:48:48.652Z,56.49
2023-04-10T23:51:14.968Z,56.53
2023-04-10T23:53:41.249Z,56.79
2023-04-10T23:56:07.840Z,58.09
2023-04-10T23:58:34.214Z,57.38
